Time;durP1;ratioP1;P1;durP2;ratioP2;P2;SDS_P1;SDS_P2;PMS_P1;PMS_P2;Temp;Humidity;BMP_temperature;BMP_pressure;BME280_temperature;BME280_humidity;BME280_pressure;Samples;Min_cycle;Max_cycle;Signal;HPM_P1;HPM_P2
2022/08/12 00:44:24;;;;;;;2.33;1.90;;;16.70;94.50;;;;;;5032109;28;20479;-70
2022/08/12 00:46:53;;;;;;;2.30;1.97;;;16.70;94.30;;;;;;5032545;28;20481;-70
2022/08/12 00:49:22;;;;;;;2.27;2.07;;;16.70;94.60;;;;;;5032407;28;20456;-69
2022/08/12 00:52:06;;;;;;;2.40;2.20;;;16.70;94.70;;;;;;5032345;28;20460;-70
2022/08/12 00:54:36;;;;;;;2.43;2.23;;;16.60;94.90;;;;;;5031814;28;20560;-70
2022/08/12 00:57:06;;;;;;;3.23;2.20;;;16.60;94.90;;;;;;5032231;28;20485;-70
2022/08/12 00:59:34;;;;;;;2.67;2.47;;;16.60;95.00;;;;;;5032252;28;20452;-69
2022/08/12 01:02:04;;;;;;;2.10;1.90;;;16.50;95.10;;;;;;5032209;28;20461;-69
2022/08/12 01:12:49;;;;;;;2.53;2.30;;;16.50;95.20;;;;;;5032142;28;20445;-70
2022/08/12 01:15:17;;;;;;;2.50;2.30;;;16.40;95.40;;;;;;5031268;28;20457;-70
2022/08/12 01:17:45;;;;;;;3.00;2.43;;;16.40;95.30;;;;;;5032109;28;20551;-70
2022/08/12 01:20:19;;;;;;;2.90;2.10;;;16.40;95.20;;;;;;5031811;28;20548;-69
2022/08/12 01:23:04;;;;;;;2.33;2.13;;;16.40;95.20;;;;;;5031876;28;20476;-70
2022/08/12 01:25:37;;;;;;;2.47;2.27;;;16.40;95.20;;;;;;5031107;28;20587;-70
2022/08/12 01:28:05;;;;;;;2.90;2.03;;;16.40;95.20;;;;;;5031680;28;20563;-70
2022/08/12 01:30:33;;;;;;;2.53;2.33;;;16.30;95.20;;;;;;5031643;28;20519;-70
2022/08/12 01:33:04;;;;;;;2.57;2.20;;;16.30;95.30;;;;;;5031699;28;20540;-69
2022/08/12 01:35:35;;;;;;;2.90;2.20;;;16.30;95.30;;;;;;5031133;28;20461;-69
2022/08/12 01:38:05;;;;;;;2.73;2.50;;;16.30;95.40;;;;;;5031441;28;20858;-69
2022/08/12 01:40:35;;;;;;;2.47;2.27;;;16.20;95.50;;;;;;5031425;28;20952;-70
2022/08/12 01:43:06;;;;;;;3.13;2.30;;;16.20;95.70;;;;;;5031599;28;20979;-69
2022/08/12 01:45:35;;;;;;;2.20;2.10;;;16.20;96.00;;;;;;5031168;28;20531;-70
2022/08/12 01:48:11;;;;;;;2.70;2.50;;;16.10;96.10;;;;;;5031459;28;20484;-70
2022/08/12 01:50:58;;;;;;;2.67;2.20;;;16.10;96.10;;;;;;5031486;28;20455;-70
2022/08/12 01:53:30;;;;;;;2.60;2.37;;;16.10;96.10;;;;;;5030749;28;20469;-70
2022/08/12 01:55:59;;;;;;;2.73;2.53;;;16.10;96.00;;;;;;5030983;28;20560;-69
2022/08/12 01:59:44;;;;;;;2.00;1.90;;;16.00;96.20;;;;;;5030952;28;20468;-70
2022/08/12 02:01:19;;;;;;;2.10;1.90;;;16.00;96.50;;;;;;5030832;28;20941;-70
2022/08/12 02:12:53;;;;;;;1.77;1.67;;;15.90;96.80;;;;;;5030975;28;20513;-70
2022/08/12 02:15:27;;;;;;;2.40;2.20;;;15.90;96.90;;;;;;5030390;28;20465;-69
2022/08/12 02:18:05;;;;;;;2.33;2.13;;;15.90;96.80;;;;;;5030969;28;20546;-69
2022/08/12 02:20:38;;;;;;;2.70;2.50;;;15.80;96.80;;;;;;5030694;28;20456;-70
2022/08/12 02:23:07;;;;;;;2.60;2.30;;;15.80;96.90;;;;;;5030855;28;20473;-69
2022/08/12 02:25:37;;;;;;;2.20;2.10;;;15.80;97.00;;;;;;5029940;28;21373;-70
2022/08/12 02:28:06;;;;;;;2.70;2.20;;;15.80;97.10;;;;;;5030861;28;21260;-69
2022/08/12 02:30:35;;;;;;;3.00;2.50;;;15.70;97.10;;;;;;5030481;28;21032;-70
2022/08/12 02:33:04;;;;;;;2.43;2.23;;;15.70;97.10;;;;;;5030840;28;20941;-70
2022/08/12 02:35:34;;;;;;;2.67;2.43;;;15.70;97.20;;;;;;5030060;28;20548;-70
2022/08/12 02:38:03;;;;;;;2.60;2.40;;;15.70;97.30;;;;;;5030962;28;20488;-70
2022/08/12 02:40:29;;;;;;;4.37;2.47;;;15.70;97.40;;;;;;5030523;28;20880;-70
2022/08/12 02:43:04;;;;;;;2.57;2.37;;;15.60;97.40;;;;;;5030605;28;20488;-70
2022/08/12 02:45:38;;;;;;;2.70;2.50;;;15.60;97.30;;;;;;5029915;28;20493;-70
2022/08/12 02:48:09;;;;;;;2.70;2.40;;;15.60;97.40;;;;;;5030350;28;20488;-70
2022/08/12 02:50:41;;;;;;;2.20;2.00;;;15.60;97.50;;;;;;5030734;28;20460;-70
2022/08/12 02:53:09;;;;;;;2.37;2.17;;;15.50;97.70;;;;;;5030536;28;20470;-70
2022/08/12 02:55:35;;;;;;;4.03;2.67;;;15.50;97.90;;;;;;5029915;28;20464;-70
2022/08/12 02:58:08;;;;;;;2.53;2.33;;;15.40;97.90;;;;;;5030288;28;20480;-70
2022/08/12 03:00:36;;;;;;;3.03;2.73;;;15.40;98.10;;;;;;5030365;28;21144;-70
2022/08/12 03:03:06;;;;;;;2.73;2.53;;;15.40;98.10;;;;;;5030434;28;20465;-69
2022/08/12 03:05:36;;;;;;;2.40;2.17;;;15.40;98.30;;;;;;5029670;28;20583;-70
2022/08/12 03:08:04;;;;;;;2.67;2.47;;;15.30;98.40;;;;;;5030179;28;20481;-70
2022/08/12 03:10:38;;;;;;;3.13;2.83;;;15.30;98.60;;;;;;5090450;22;20504;-69
2022/08/12 03:13:07;;;;;;;2.20;2.00;;;15.30;98.80;;;;;;5030634;28;20456;-70
2022/08/12 03:15:35;;;;;;;3.17;2.87;;;15.30;98.90;;;;;;5030226;28;20511;-70
2022/08/12 03:18:12;;;;;;;3.00;2.80;;;15.30;98.90;;;;;;5034451;28;21110;-70
2022/08/12 03:20:40;;;;;;;2.93;2.40;;;15.40;99.40;;;;;;5034513;28;21026;-71
2022/08/12 03:23:10;;;;;;;2.60;2.40;;;15.40;99.00;;;;;;5034339;28;20547;-69
2022/08/12 03:25:39;;;;;;;3.10;2.40;;;15.40;99.10;;;;;;5033984;28;20887;-69
2022/08/12 03:28:09;;;;;;;3.43;3.13;;;15.30;99.20;;;;;;5034278;28;20511;-70
2022/08/12 03:30:39;;;;;;;2.60;2.40;;;15.30;99.10;;;;;;5034428;28;20460;-70
2022/08/12 03:33:06;;;;;;;2.47;2.27;;;15.30;99.10;;;;;;5034478;28;20468;-70
2022/08/12 03:35:34;;;;;;;2.80;2.60;;;15.20;99.00;;;;;;5033866;28;20537;-70
2022/08/12 03:38:04;;;;;;;3.50;2.30;;;15.20;99.00;;;;;;5034195;28;20480;-69
2022/08/12 04:02:57;;;;;;;3.37;3.07;;;15.00;99.70;;;;;;5033657;28;20472;-70
2022/08/12 04:05:24;;;;;;;3.33;3.03;;;15.00;99.80;;;;;;5032582;28;20495;-69
2022/08/12 04:07:52;;;;;;;2.77;2.53;;;15.00;99.70;;;;;;5033535;28;20491;-70
2022/08/12 04:10:19;;;;;;;3.37;2.37;;;15.00;99.90;;;;;;5033208;28;20479;-70
2022/08/12 04:15:44;;;;;;;2.60;2.40;;;14.90;99.90;;;;;;5033139;28;20440;-70
2022/08/12 04:18:14;;;;;;;3.47;2.87;;;14.90;99.90;;;;;;5033320;28;20484;-70
2022/08/12 04:20:42;;;;;;;3.37;2.70;;;14.90;99.90;;;;;;5033443;28;20497;-70
2022/08/12 04:25:39;;;;;;;3.87;2.40;;;14.80;99.90;;;;;;4991525;28;20549;-69
2022/08/12 04:28:06;;;;;;;2.70;2.50;;;14.80;99.90;;;;;;5010337;28;20524;-69
2022/08/12 04:30:33;;;;;;;2.80;2.60;;;14.70;99.90;;;;;;5013229;28;20549;-70
2022/08/12 04:33:00;;;;;;;2.90;2.63;;;14.70;99.90;;;;;;5012608;28;21027;-71
2022/08/12 04:35:33;;;;;;;2.63;2.30;;;14.70;99.90;;;;;;5012377;28;20481;-71
2022/08/12 04:38:00;;;;;;;2.83;2.63;;;14.70;99.90;;;;;;5012851;28;20536;-71
2022/08/12 04:40:29;;;;;;;2.47;2.27;;;14.70;99.90;;;;;;5012952;28;20485;-71
2022/08/12 04:42:57;;;;;;;2.20;2.03;;;14.70;99.90;;;;;;5012763;28;20494;-71
2022/08/12 04:45:23;;;;;;;3.77;3.03;;;14.70;99.90;;;;;;5012076;28;20902;-71
2022/08/12 04:47:50;;;;;;;2.70;2.50;;;14.70;99.90;;;;;;5012605;28;20496;-71
2022/08/12 04:50:18;;;;;;;3.00;2.80;;;14.70;99.90;;;;;;5012746;28;20473;-71
2022/08/12 04:52:48;;;;;;;3.80;2.47;;;14.80;99.90;;;;;;5012565;28;20572;-71
2022/08/12 04:55:15;;;;;;;3.17;2.80;;;14.80;99.90;;;;;;5012302;28;20465;-71
2022/08/12 04:57:43;;;;;;;2.87;2.60;;;14.80;99.90;;;;;;5012636;28;20548;-71
2022/08/12 05:00:11;;;;;;;3.10;2.80;;;14.80;99.90;;;;;;5012535;28;20845;-71
2022/08/12 05:02:38;;;;;;;3.30;3.00;;;14.80;99.90;;;;;;5012507;28;20468;-71
2022/08/12 05:05:07;;;;;;;2.87;2.67;;;14.80;99.90;;;;;;5011863;28;20485;-71
2022/08/12 05:07:34;;;;;;;2.90;2.60;;;14.90;99.90;;;;;;5012329;28;20484;-71
2022/08/12 05:10:03;;;;;;;2.77;2.50;;;14.90;99.90;;;;;;5012279;28;20466;-71
2022/08/12 05:12:39;;;;;;;2.70;2.50;;;14.90;99.90;;;;;;5012448;28;20462;-71
2022/08/12 05:15:07;;;;;;;4.90;3.70;;;14.90;99.90;;;;;;5011968;28;20458;-71
2022/08/12 05:17:33;;;;;;;2.93;2.73;;;14.90;99.90;;;;;;5012187;28;20512;-71
2022/08/12 05:20:00;;;;;;;2.77;2.50;;;15.00;99.90;;;;;;5012398;28;20462;-71
2022/08/12 05:22:27;;;;;;;3.60;2.67;;;15.10;99.90;;;;;;5012433;28;20468;-71
2022/08/12 05:24:54;;;;;;;2.57;2.37;;;15.10;99.90;;;;;;5011599;28;20865;-71
2022/08/12 05:27:22;;;;;;;3.30;3.00;;;15.10;99.90;;;;;;5012107;28;20488;-71
2022/08/12 05:29:49;;;;;;;2.57;2.37;;;15.20;99.90;;;;;;5012020;28;20466;-71
2022/08/12 05:32:19;;;;;;;3.20;2.90;;;15.20;99.90;;;;;;5012138;28;20552;-71
2022/08/12 05:34:46;;;;;;;3.00;2.57;;;15.30;99.90;;;;;;5011152;28;20953;-71
2022/08/12 05:37:13;;;;;;;3.47;3.17;;;15.40;99.90;;;;;;5011914;28;20482;-71
2022/08/12 05:39:40;;;;;;;3.60;3.07;;;15.40;99.90;;;;;;5010973;28;20910;-71
2022/08/12 05:42:07;;;;;;;3.47;2.97;;;15.50;99.90;;;;;;5011789;28;20569;-71
2022/08/12 05:44:36;;;;;;;2.73;2.50;;;15.60;99.90;;;;;;5010923;28;20466;-71
2022/08/12 05:47:03;;;;;;;3.17;2.90;;;15.70;99.90;;;;;;5011619;28;20489;-71
2022/08/12 05:49:30;;;;;;;2.93;2.67;;;15.80;99.90;;;;;;5011335;28;20980;-71
2022/08/12 05:51:57;;;;;;;3.53;2.63;;;15.80;99.90;;;;;;5011576;28;20516;-71
2022/08/12 05:54:24;;;;;;;2.80;2.57;;;15.90;99.90;;;;;;5010947;28;21017;-71
2022/08/12 05:56:51;;;;;;;4.27;2.37;;;16.00;99.90;;;;;;4991760;28;20575;-71
2022/08/12 05:59:20;;;;;;;3.20;2.40;;;16.10;99.90;;;;;;4991306;28;20521;-71
2022/08/12 06:01:48;;;;;;;2.87;2.50;;;16.30;99.90;;;;;;4991627;28;20865;-72
2022/08/12 06:04:14;;;;;;;5.20;2.80;;;16.40;99.90;;;;;;4989628;28;20464;-72
2022/08/12 06:06:42;;;;;;;2.93;2.73;;;16.50;99.90;;;;;;4990801;28;20707;-73
2022/08/12 06:09:10;;;;;;;5.20;2.53;;;16.60;99.90;;;;;;4991530;28;20497;-73
2022/08/12 06:11:40;;;;;;;3.80;2.60;;;16.80;99.90;;;;;;4991003;28;20842;-72
2022/08/12 06:14:07;;;;;;;2.67;1.87;;;17.00;99.60;;;;;;4991037;28;20473;-72
2022/08/12 06:16:34;;;;;;;2.93;2.63;;;17.10;99.20;;;;;;4991174;28;20570;-72
2022/08/12 06:19:02;;;;;;;6.13;2.20;;;17.20;98.30;;;;;;4990402;28;20950;-73
2022/08/12 06:21:29;;;;;;;2.00;1.90;;;17.40;97.40;;;;;;4991222;28;20470;-72
2022/08/12 06:23:57;;;;;;;2.93;2.63;;;17.60;97.30;;;;;;4990655;28;20477;-72
2022/08/12 06:26:23;;;;;;;2.20;2.00;;;17.80;96.80;;;;;;4990960;28;20615;-72
2022/08/12 06:28:51;;;;;;;3.00;2.53;;;17.90;96.60;;;;;;4991391;28;20474;-72
2022/08/12 06:31:18;;;;;;;2.53;2.33;;;18.00;96.50;;;;;;4991389;28;20462;-72
2022/08/12 06:33:47;;;;;;;3.07;2.77;;;18.10;96.40;;;;;;4990439;28;20467;-72
2022/08/12 06:36:16;;;;;;;3.77;2.67;;;18.30;96.00;;;;;;4991091;28;20481;-72
2022/08/12 06:38:44;;;;;;;2.67;2.30;;;18.40;95.60;;;;;;4990988;28;20959;-71
2022/08/12 06:43:57;;;;;;;2.83;2.50;;;18.60;95.40;;;;;;4990345;28;20445;-72
2022/08/12 06:46:26;;;;;;;2.50;2.00;;;18.70;95.00;;;;;;4990801;28;20494;-72
2022/08/12 06:48:56;;;;;;;2.43;2.13;;;18.80;94.80;;;;;;4990543;28;20490;-72
2022/08/12 06:51:25;;;;;;;2.23;2.03;;;18.90;94.80;;;;;;4996416;28;20508;-72
2022/08/12 06:53:51;;;;;;;2.83;2.00;;;19.00;94.90;;;;;;4996690;28;20462;-72
2022/08/12 06:56:18;;;;;;;3.07;2.10;;;19.10;95.00;;;;;;4996505;28;20485;-71
2022/08/12 06:58:45;;;;;;;2.03;1.83;;;19.20;94.60;;;;;;4997446;28;20467;-72
2022/08/12 07:01:11;;;;;;;2.40;2.10;;;19.30;94.40;;;;;;4997723;28;20463;-72
2022/08/12 07:03:38;;;;;;;2.57;2.23;;;19.50;94.30;;;;;;4996174;28;20462;-72
2022/08/12 07:06:09;;;;;;;4.33;2.03;;;19.50;93.60;;;;;;4997656;28;20865;-71
2022/08/12 07:08:38;;;;;;;3.80;2.30;;;19.60;93.10;;;;;;4996678;28;20471;-72
2022/08/12 07:11:08;;;;;;;3.17;2.20;;;19.80;93.30;;;;;;4997343;28;20617;-72
2022/08/12 07:13:37;;;;;;;2.10;1.90;;;19.90;93.50;;;;;;4996357;28;20870;-71
2022/08/12 07:16:05;;;;;;;1.90;1.80;;;20.00;92.80;;;;;;4997554;28;20458;-72
2022/08/12 07:18:33;;;;;;;2.23;2.03;;;20.10;92.90;;;;;;4996691;28;20517;-71
2022/08/12 07:21:02;;;;;;;2.27;1.77;;;20.20;92.90;;;;;;4997577;28;20501;-72
2022/08/12 07:23:30;;;;;;;3.07;1.83;;;20.20;92.50;;;;;;4996655;28;20466;-72
2022/08/12 07:25:59;;;;;;;2.13;1.93;;;20.30;92.60;;;;;;4996391;28;20486;-72
2022/08/12 07:28:28;;;;;;;2.00;1.73;;;20.40;92.30;;;;;;4997218;28;20466;-72
2022/08/12 07:30:56;;;;;;;2.30;2.10;;;20.50;91.60;;;;;;4996114;28;20557;-72
2022/08/12 07:33:26;;;;;;;2.63;2.43;;;20.50;91.70;;;;;;4996166;28;20463;-72
2022/08/12 07:35:55;;;;;;;2.00;1.80;;;20.60;91.10;;;;;;4996518;28;21307;-72
2022/08/12 07:38:25;;;;;;;2.77;1.97;;;20.70;91.60;;;;;;4997150;28;20498;-72
2022/08/12 07:40:54;;;;;;;2.47;2.27;;;20.80;91.70;;;;;;4996348;28;20470;-72
2022/08/12 07:43:22;;;;;;;2.00;1.70;;;20.90;91.20;;;;;;4995787;28;20883;-72
2022/08/12 07:45:50;;;;;;;1.90;1.70;;;21.00;91.50;;;;;;4995492;28;20483;-72
2022/08/12 07:48:17;;;;;;;1.90;1.70;;;21.10;91.10;;;;;;4996313;28;20493;-73
2022/08/12 07:50:44;;;;;;;2.13;2.00;;;21.30;90.20;;;;;;4996546;28;20521;-72
2022/08/12 07:53:11;;;;;;;1.90;1.70;;;21.40;90.40;;;;;;4996147;28;20543;-72
2022/08/12 07:55:39;;;;;;;2.53;2.20;;;21.50;91.20;;;;;;4995583;28;20516;-73
2022/08/12 07:58:07;;;;;;;5.33;2.40;;;21.50;91.10;;;;;;4996295;28;20479;-72
2022/08/12 08:00:39;;;;;;;3.03;2.00;;;21.60;91.00;;;;;;4996017;28;20494;-73
2022/08/12 08:03:07;;;;;;;3.00;1.73;;;21.70;89.90;;;;;;4992876;28;20462;-72
2022/08/12 08:05:45;;;;;;;2.10;1.90;;;21.80;90.60;;;;;;4992662;28;20474;-72
2022/08/12 08:08:21;;;;;;;2.87;2.50;;;21.90;91.20;;;;;;4992730;28;20918;-72
2022/08/12 08:10:48;;;;;;;5.30;2.00;;;22.00;91.20;;;;;;4993265;28;20468;-72
2022/08/12 08:13:15;;;;;;;2.87;2.03;;;22.20;89.50;;;;;;4993412;28;20462;-72
2022/08/12 08:15:45;;;;;;;2.03;1.90;;;22.20;89.40;;;;;;4992426;28;20490;-72
2022/08/12 08:18:14;;;;;;;2.20;2.00;;;22.20;90.00;;;;;;4992985;28;20483;-72
2022/08/12 08:20:43;;;;;;;1.87;1.77;;;22.30;90.00;;;;;;4992701;28;20467;-73
2022/08/12 08:23:12;;;;;;;4.33;2.00;;;22.40;90.10;;;;;;4992864;28;20461;-72
2022/08/12 08:25:40;;;;;;;2.70;2.07;;;22.50;88.30;;;;;;4992887;28;20456;-71
2022/08/12 08:28:09;;;;;;;2.10;1.80;;;22.60;88.00;;;;;;4992879;28;20492;-71
2022/08/12 08:30:38;;;;;;;2.23;2.03;;;22.70;88.10;;;;;;4992442;28;20824;-71
2022/08/12 08:33:11;;;;;;;2.03;1.87;;;22.80;87.20;;;;;;4992342;28;20578;-72
2022/08/12 08:35:39;;;;;;;3.17;2.37;;;22.90;87.70;;;;;;4992408;28;20461;-73
2022/08/12 08:38:10;;;;;;;2.07;1.87;;;23.10;89.60;;;;;;4992494;28;20479;-71
2022/08/12 08:43:24;;;;;;;2.13;1.90;;;23.40;89.00;;;;;;4992430;28;20462;-71
2022/08/12 08:45:50;;;;;;;1.97;1.77;;;23.60;84.50;;;;;;4991681;28;20659;-71
2022/08/12 08:48:21;;;;;;;4.67;2.10;;;23.70;83.90;;;;;;4992232;28;21112;-71
2022/08/12 08:50:48;;;;;;;2.43;1.87;;;23.80;84.90;;;;;;4992880;28;20463;-71
2022/08/12 08:53:14;;;;;;;4.03;2.03;;;23.80;85.10;;;;;;4991820;28;21179;-71
2022/08/12 08:55:42;;;;;;;2.20;2.00;;;24.00;86.00;;;;;;4992330;28;20469;-72
2022/08/12 08:58:09;;;;;;;2.50;2.30;;;24.10;85.90;;;;;;4991804;28;20546;-71
2022/08/12 09:00:38;;;;;;;2.50;2.30;;;24.20;84.20;;;;;;4992277;28;20966;-70
2022/08/12 09:03:04;;;;;;;2.43;1.87;;;24.40;86.00;;;;;;4992527;28;20469;-72
2022/08/12 09:05:33;;;;;;;2.20;1.90;;;24.40;82.40;;;;;;4989814;28;20549;-73
2022/08/12 09:08:03;;;;;;;1.80;1.57;;;24.50;82.60;;;;;;4972356;28;20854;-72
2022/08/12 09:10:32;;;;;;;2.07;1.60;;;24.50;81.40;;;;;;4972298;28;20875;-72
2022/08/12 09:15:45;;;;;;;1.60;1.47;;;24.70;81.30;;;;;;4971452;28;20453;-72
2022/08/12 09:18:14;;;;;;;2.00;1.80;;;24.80;83.60;;;;;;4971555;28;20494;-74
2022/08/12 09:20:43;;;;;;;2.37;1.93;;;24.90;84.80;;;;;;4971142;28;20473;-71
2022/08/12 09:23:11;;;;;;;3.00;1.90;;;25.10;81.00;;;;;;4971041;28;20467;-72
2022/08/12 09:25:39;;;;;;;3.60;1.77;;;25.20;80.10;;;;;;4971023;28;20491;-72
2022/08/12 09:28:08;;;;;;;2.10;1.83;;;25.20;83.60;;;;;;4970886;28;20482;-72
2022/08/12 09:30:35;;;;;;;1.97;1.87;;;25.30;80.30;;;;;;4971271;28;20475;-71
2022/08/12 09:33:02;;;;;;;1.93;1.70;;;25.30;80.90;;;;;;4971199;28;20478;-72
2022/08/12 09:35:32;;;;;;;2.40;2.00;;;25.20;78.70;;;;;;4970532;28;20475;-72
2022/08/12 09:38:01;;;;;;;2.10;1.90;;;25.20;81.50;;;;;;4971239;28;21550;-72
2022/08/12 09:40:30;;;;;;;6.80;2.00;;;25.30;82.90;;;;;;4971349;28;20554;-72
2022/08/12 09:45:45;;;;;;;2.47;2.27;;;25.60;85.70;;;;;;4970442;28;20587;-72
2022/08/12 09:48:15;;;;;;;2.27;2.00;;;25.80;82.40;;;;;;4970875;28;20565;-74
2022/08/12 09:50:43;;;;;;;1.93;1.83;;;25.80;82.30;;;;;;4982962;28;20561;-72
2022/08/12 09:53:14;;;;;;;1.70;1.60;;;26.00;81.40;;;;;;4990662;28;20461;-72
2022/08/12 09:55:45;;;;;;;2.23;2.10;;;26.00;80.90;;;;;;4990660;28;20524;-72
2022/08/12 09:58:11;;;;;;;2.50;2.30;;;26.00;81.50;;;;;;4988179;28;20514;-72
2022/08/12 10:00:38;;;;;;;2.20;2.00;;;26.00;79.00;;;;;;4991089;28;20473;-72
2022/08/12 10:03:06;;;;;;;2.70;2.30;;;25.90;80.70;;;;;;4990650;28;20836;-73
2022/08/12 10:05:39;;;;;;;2.20;2.00;;;25.80;77.80;;;;;;4989565;28;21024;-72
2022/08/12 10:08:06;;;;;;;1.97;1.73;;;25.80;77.30;;;;;;4990046;28;21064;-73
2022/08/12 10:13:40;;;;;;;2.60;1.97;;;25.90;80.80;;;;;;4990411;28;20466;-72
2022/08/12 10:13:41;;;;;;;2.13;1.93;;;26.10;82.60;;;;;;4990211;28;20454;-72
2022/08/12 10:16:10;;;;;;;2.07;1.97;;;26.30;78.50;;;;;;4990658;28;20463;-72
2022/08/12 10:18:38;;;;;;;1.90;1.77;;;26.40;80.10;;;;;;4987873;28;20549;-71
2022/08/12 10:21:06;;;;;;;2.67;2.20;;;26.50;79.10;;;;;;4990307;28;20462;-71
2022/08/12 10:23:33;;;;;;;1.80;1.70;;;26.50;78.20;;;;;;4989485;28;21024;-72
2022/08/12 10:31:30;;;;;;;3.23;2.10;;;26.60;77.80;;;;;;4990022;28;20442;-72
2022/08/12 10:33:57;;;;;;;2.17;1.77;;;26.80;80.60;;;;;;4989377;28;20467;-72
2022/08/12 10:36:24;;;;;;;1.90;1.80;;;26.90;78.80;;;;;;4989448;28;20921;-72
2022/08/12 10:38:51;;;;;;;1.80;1.63;;;26.90;78.70;;;;;;4990562;28;20506;-72
2022/08/12 10:44:04;;;;;;;2.23;1.87;;;27.20;78.00;;;;;;4989627;28;20901;-72
2022/08/12 10:46:31;;;;;;;2.10;1.90;;;27.40;80.50;;;;;;4988661;28;20573;-72
2022/08/12 10:48:59;;;;;;;1.93;1.70;;;27.50;82.20;;;;;;4988953;28;20463;-72
2022/08/12 10:51:30;;;;;;;2.30;1.93;;;27.70;78.90;;;;;;4989650;28;20466;-72
2022/08/12 10:53:56;;;;;;;2.60;1.70;;;27.80;77.00;;;;;;4990139;28;20473;-73
2022/08/12 10:56:24;;;;;;;3.17;2.03;;;27.90;77.80;;;;;;4989704;28;20479;-72
2022/08/12 10:58:54;;;;;;;2.60;1.70;;;27.90;75.70;;;;;;4989546;28;20982;-72
2022/08/12 11:01:22;;;;;;;2.13;1.93;;;27.60;77.00;;;;;;4988392;28;20475;-72
2022/08/12 11:03:49;;;;;;;2.43;1.73;;;27.40;75.70;;;;;;4989476;28;20861;-72
2022/08/12 11:06:17;;;;;;;2.17;1.87;;;27.10;77.00;;;;;;4989260;28;20530;-72
2022/08/12 11:08:44;;;;;;;1.90;1.53;;;26.90;78.50;;;;;;4989808;28;20985;-72
2022/08/12 11:11:16;;;;;;;2.20;2.00;;;27.00;77.10;;;;;;4989782;28;20958;-71
2022/08/12 11:13:45;;;;;;;2.00;1.80;;;27.30;77.10;;;;;;4988962;28;20513;-71
2022/08/12 11:16:12;;;;;;;2.63;2.10;;;27.50;78.20;;;;;;4989415;28;20498;-71
2022/08/12 11:18:39;;;;;;;2.47;1.90;;;27.60;80.70;;;;;;4989166;28;20506;-71
2022/08/12 11:21:06;;;;;;;3.10;1.77;;;27.80;77.30;;;;;;4989450;28;20561;-71
2022/08/12 11:23:33;;;;;;;2.27;1.90;;;27.70;79.20;;;;;;4988690;28;20466;-71
2022/08/12 11:26:00;;;;;;;1.90;1.80;;;27.50;77.90;;;;;;4989667;28;21001;-71
2022/08/12 11:28:27;;;;;;;1.67;1.57;;;27.20;78.30;;;;;;4988735;28;20490;-71
2022/08/12 11:30:55;;;;;;;1.80;1.70;;;27.20;77.50;;;;;;4989665;28;20525;-72
2022/08/12 11:33:21;;;;;;;1.70;1.43;;;27.30;75.00;;;;;;4988752;28;20513;-71
2022/08/12 11:35:48;;;;;;;2.30;1.53;;;27.60;80.40;;;;;;4988543;28;20473;-69
2022/08/12 11:38:15;;;;;;;1.70;1.60;;;27.80;77.90;;;;;;4992570;28;20851;-69
2022/08/12 11:40:41;;;;;;;2.13;1.70;;;28.00;75.70;;;;;;4993061;28;20474;-69
2022/08/12 11:43:08;;;;;;;1.67;1.57;;;28.20;77.20;;;;;;4992388;28;20463;-68
2022/08/12 11:45:35;;;;;;;3.07;1.83;;;28.50;74.90;;;;;;4992285;28;20475;-70
2022/08/12 11:48:03;;;;;;;2.30;2.00;;;28.60;75.00;;;;;;4993320;28;20517;-70
2022/08/12 11:50:30;;;;;;;1.97;1.70;;;28.60;74.70;;;;;;4993169;28;20497;-70
2022/08/12 11:52:57;;;;;;;2.30;2.10;;;28.60;76.20;;;;;;4993479;28;20469;-68
2022/08/12 11:55:24;;;;;;;2.17;1.97;;;28.70;71.30;;;;;;4992333;28;20513;-69
2022/08/12 11:57:51;;;;;;;4.33;2.00;;;28.40;74.10;;;;;;4992678;28;20538;-69
2022/08/12 12:00:19;;;;;;;2.27;1.97;;;28.10;75.20;;;;;;4992728;28;20466;-69
2022/08/12 12:02:46;;;;;;;1.87;1.70;;;27.80;73.50;;;;;;4992749;28;20470;-69
2022/08/12 12:05:15;;;;;;;2.23;1.70;;;27.50;74.20;;;;;;4992458;28;20813;-69
2022/08/12 12:07:43;;;;;;;2.00;1.80;;;27.30;76.40;;;;;;4991256;28;20494;-69
2022/08/12 12:10:10;;;;;;;1.90;1.80;;;27.20;75.40;;;;;;4992992;28;20466;-68
2022/08/12 12:12:37;;;;;;;2.33;2.10;;;27.40;76.90;;;;;;4991775;28;20462;-70
2022/08/12 12:15:05;;;;;;;2.90;1.77;;;27.70;77.50;;;;;;4992404;28;20998;-68
2022/08/12 12:17:35;;;;;;;2.10;1.90;;;27.90;76.10;;;;;;4992209;28;20485;-70
2022/08/12 12:20:03;;;;;;;2.50;2.00;;;27.80;76.20;;;;;;4992859;28;21027;-70
2022/08/12 12:22:31;;;;;;;1.93;1.83;;;27.70;74.60;;;;;;4992242;28;20529;-70
2022/08/12 12:24:58;;;;;;;1.90;1.70;;;27.40;76.70;;;;;;4991854;28;20471;-70
2022/08/12 12:27:25;;;;;;;2.17;1.97;;;27.30;76.00;;;;;;4992086;28;20494;-67
2022/08/12 12:29:52;;;;;;;3.00;2.20;;;27.10;76.40;;;;;;4992471;28;20467;-69
2022/08/12 12:32:19;;;;;;;2.00;1.80;;;26.90;75.50;;;;;;4992488;28;20463;-69
2022/08/12 12:34:46;;;;;;;2.33;2.13;;;26.70;76.90;;;;;;4991555;28;20467;-69
2022/08/12 12:37:14;;;;;;;1.80;1.70;;;26.60;77.20;;;;;;4991646;28;20570;-70
2022/08/12 12:39:42;;;;;;;2.10;1.97;;;26.80;77.40;;;;;;4992134;28;20458;-70
2022/08/12 12:42:08;;;;;;;1.80;1.70;;;27.10;77.10;;;;;;4992297;28;20463;-70
2022/08/12 12:44:35;;;;;;;2.87;1.50;;;27.40;77.20;;;;;;4991584;28;20467;-70
2022/08/12 12:47:02;;;;;;;1.70;1.60;;;27.40;76.10;;;;;;4992443;28;20871;-69
2022/08/12 12:49:29;;;;;;;2.53;1.50;;;27.40;76.30;;;;;;4991250;28;20463;-68
2022/08/12 12:51:56;;;;;;;1.70;1.57;;;27.10;75.40;;;;;;4992410;28;20477;-69
2022/08/12 12:54:23;;;;;;;2.67;1.97;;;26.90;75.70;;;;;;4991874;28;20467;-69
2022/08/12 12:56:53;;;;;;;1.60;1.50;;;26.80;76.70;;;;;;4991132;28;20581;-69
2022/08/12 12:59:22;;;;;;;2.10;1.90;;;26.60;76.10;;;;;;4992232;28;20466;-70
2022/08/12 13:01:48;;;;;;;1.83;1.70;;;26.60;74.20;;;;;;4991131;28;20463;-70
2022/08/12 13:04:16;;;;;;;2.27;2.00;;;26.70;73.50;;;;;;4991308;28;20466;-71
2022/08/12 13:06:45;;;;;;;2.00;1.80;;;26.80;75.60;;;;;;4991627;28;20505;-71
2022/08/12 13:09:12;;;;;;;2.37;2.17;;;26.80;76.20;;;;;;4991532;28;20490;-70
2022/08/12 13:11:39;;;;;;;1.60;1.50;;;26.70;74.50;;;;;;4990284;28;20963;-70
2022/08/12 13:14:08;;;;;;;2.13;2.00;;;26.50;74.10;;;;;;4989658;28;20458;-70
2022/08/12 13:16:35;;;;;;;1.57;1.47;;;26.60;75.30;;;;;;4990813;28;20525;-68
2022/08/12 13:19:02;;;;;;;3.40;1.90;;;26.80;73.20;;;;;;4990882;28;20963;-69
2022/08/12 13:21:29;;;;;;;2.20;2.00;;;26.90;76.30;;;;;;4991132;28;20466;-70
2022/08/12 13:23:56;;;;;;;1.77;1.67;;;27.00;75.00;;;;;;4990834;28;20478;-70
2022/08/12 13:26:23;;;;;;;2.53;2.20;;;27.10;74.90;;;;;;4990593;28;20483;-70
2022/08/12 13:28:52;;;;;;;2.00;1.80;;;27.40;74.70;;;;;;4991086;28;20494;-70
2022/08/12 13:31:22;;;;;;;2.10;1.90;;;27.60;70.80;;;;;;4991525;28;20467;-70
2022/08/12 13:33:50;;;;;;;2.80;2.03;;;27.60;72.90;;;;;;4989982;28;20468;-70
2022/08/12 13:36:19;;;;;;;1.90;1.70;;;27.50;72.70;;;;;;4991521;28;20463;-71
2022/08/12 13:38:49;;;;;;;1.93;1.83;;;27.30;71.80;;;;;;4990715;28;20906;-71
2022/08/12 13:41:31;;;;;;;2.27;2.10;;;27.10;72.60;;;;;;4991309;28;20525;-70
2022/08/12 13:43:58;;;;;;;1.90;1.70;;;26.80;72.80;;;;;;4990870;28;20890;-71
2022/08/12 13:46:26;;;;;;;7.93;2.03;;;26.60;73.20;;;;;;4990647;28;20558;-69
2022/08/12 13:48:55;;;;;;;1.60;1.50;;;26.50;74.50;;;;;;4990548;28;20495;-69
2022/08/12 13:51:22;;;;;;;1.70;1.60;;;26.40;74.50;;;;;;4990854;28;20467;-71
2022/08/12 13:53:50;;;;;;;2.00;1.67;;;26.60;73.80;;;;;;4990325;28;20876;-69
2022/08/12 13:56:16;;;;;;;1.77;1.67;;;26.90;74.10;;;;;;4990378;28;20524;-69
2022/08/12 13:58:47;;;;;;;1.73;1.40;;;27.20;75.50;;;;;;4990857;28;20959;-70
2022/08/12 14:01:16;;;;;;;2.10;1.80;;;27.50;74.90;;;;;;4990716;28;21025;-72
2022/08/12 14:03:44;;;;;;;1.67;1.57;;;27.80;75.50;;;;;;4989696;28;20470;-72
2022/08/12 14:06:12;;;;;;;1.67;1.57;;;28.10;76.50;;;;;;4990683;28;20883;-72
2022/08/12 14:08:39;;;;;;;2.10;1.90;;;28.40;77.30;;;;;;4990201;28;20497;-72
2022/08/12 14:11:06;;;;;;;1.70;1.60;;;28.60;74.60;;;;;;4990778;28;20473;-72
2022/08/12 14:13:36;;;;;;;2.23;1.70;;;28.70;71.80;;;;;;4989684;28;20458;-70
2022/08/12 14:16:03;;;;;;;1.90;1.70;;;28.70;72.10;;;;;;4990160;28;20951;-70
2022/08/12 14:18:31;;;;;;;5.37;1.60;;;28.70;74.00;;;;;;4990318;28;20462;-72
2022/08/12 14:21:01;;;;;;;2.20;2.00;;;28.60;72.20;;;;;;4990675;28;20463;-72
2022/08/12 14:23:31;;;;;;;4.43;1.60;;;28.40;73.10;;;;;;4990285;28;20502;-72
2022/08/12 14:25:58;;;;;;;2.27;1.60;;;28.10;71.10;;;;;;5073165;22;20497;-68
2022/08/12 14:28:26;;;;;;;1.50;1.40;;;27.80;71.20;;;;;;5010722;28;20486;-68
2022/08/12 14:30:55;;;;;;;1.80;1.67;;;27.60;72.60;;;;;;5011586;28;20489;-68
2022/08/12 14:33:23;;;;;;;2.10;1.90;;;27.40;73.90;;;;;;5008437;28;20462;-67
2022/08/12 14:35:51;;;;;;;1.77;1.67;;;27.40;74.10;;;;;;5010703;28;20953;-67
2022/08/12 14:38:21;;;;;;;1.93;1.83;;;27.40;75.10;;;;;;5010524;28;21044;-67
2022/08/12 14:40:49;;;;;;;2.20;2.00;;;27.50;74.20;;;;;;5011328;28;20986;-68
2022/08/12 14:43:16;;;;;;;1.83;1.73;;;27.70;74.00;;;;;;5010694;28;20835;-67